Time,TemperatureF,DewpointF,PressureIn,WindDirection,WindDirectionDegrees,WindSpeedMPH,WindSpeedGustMPH,Humidity,HourlyPrecipIn,Conditions,Clouds,dailyrainin,SolarRadiationWatts/m^2,SoftwareType,DateUTC
2013-08-10 00:02:00,75.0,73.0,-100.00,SSW,210,0.0,4.0,95,0.00,,,0.00,0.000000,,2013-08-10 04:02:00,
2013-08-10 00:32:00,74.0,73.0,-100.00,East,92,0.0,3.0,96,0.00,,,0.00,0.000000,,2013-08-10 04:32:00,
2013-08-10 00:43:00,74.0,73.0,-100.00,East,92,0.0,3.0,96,0.00,,,0.00,0.000000,,2013-08-10 04:43:00,
2013-08-10 00:53:00,74.0,73.0,-100.00,East,92,0.0,3.0,96,0.00,,,0.00,0.000000,,2013-08-10 04:53:00,
2013-08-10 01:02:00,74.0,73.0,-100.00,East,92,0.0,3.0,96,0.00,,,0.00,0.000000,,2013-08-10 05:02:00,
2013-08-10 01:43:00,73.0,72.0,-100.00,NNE,23,2.0,4.0,97,0.00,,,0.00,0.000000,,2013-08-10 05:43:00,
2013-08-10 01:52:00,73.0,72.0,-100.00,NNE,23,2.0,4.0,97,0.00,,,0.00,0.000000,,2013-08-10 05:52:00,
2013-08-10 02:02:00,73.0,72.0,-100.00,NNE,23,2.0,4.0,97,0.00,,,0.00,0.000000,,2013-08-10 06:02:00,
2013-08-10 02:32:00,72.0,71.0,-100.00,SSE,154,2.0,4.0,96,0.00,,,0.00,0.000000,,2013-08-10 06:32:00,
2013-08-10 02:44:00,72.0,71.0,-100.00,SSE,154,2.0,4.0,96,0.00,,,0.00,0.000000,,2013-08-10 06:44:00,
2013-08-10 02:53:00,72.0,71.0,-100.00,SSE,154,2.0,4.0,96,0.00,,,0.00,0.000000,,2013-08-10 06:53:00,
2013-08-10 03:02:00,72.0,71.0,-100.00,SSE,154,2.0,4.0,96,0.00,,,0.00,0.000000,,2013-08-10 07:02:00,
2013-08-10 03:33:00,73.0,72.0,-100.00,East,87,0.0,3.0,97,0.00,,,0.00,0.000000,,2013-08-10 07:33:00,
2013-08-10 03:43:00,73.0,72.0,-100.00,East,87,0.0,3.0,97,0.00,,,0.00,0.000000,,2013-08-10 07:43:00,
2013-08-10 03:52:00,73.0,72.0,-100.00,East,87,0.0,3.0,97,0.00,,,0.00,0.000000,,2013-08-10 07:52:00,
2013-08-10 04:01:00,73.0,72.0,-100.00,East,87,0.0,3.0,97,0.00,,,0.00,0.000000,,2013-08-10 08:01:00,
2013-08-10 04:32:00,72.0,71.0,-100.00,South,174,0.0,4.0,97,0.00,,,0.00,0.000000,,2013-08-10 08:32:00,
2013-08-10 04:43:00,72.0,71.0,-100.00,South,174,0.0,4.0,97,0.00,,,0.00,0.000000,,2013-08-10 08:43:00,
2013-08-10 04:53:00,72.0,71.0,-100.00,South,174,0.0,4.0,97,0.00,,,0.00,0.000000,,2013-08-10 08:53:00,
2013-08-10 05:02:00,72.0,71.0,-100.00,South,174,0.0,4.0,97,0.00,,,0.00,0.000000,,2013-08-10 09:02:00,
2013-08-10 05:43:00,71.0,70.0,-100.00,SSW,205,0.0,2.0,97,0.00,,,0.00,0.000000,,2013-08-10 09:43:00,
2013-08-10 05:52:00,71.0,70.0,-100.00,SSW,205,0.0,2.0,97,0.00,,,0.00,0.000000,,2013-08-10 09:52:00,
2013-08-10 06:02:00,71.0,70.0,-100.00,SSW,205,0.0,2.0,97,0.00,,,0.00,0.000000,,2013-08-10 10:02:00,
2013-08-10 06:44:00,70.0,69.0,-100.00,SSE,156,0.0,2.0,97,0.00,,,0.00,0.000000,,2013-08-10 10:44:00,
2013-08-10 06:53:00,70.0,69.0,-100.00,SSE,156,0.0,2.0,97,0.00,,,0.00,0.000000,,2013-08-10 10:53:00,
2013-08-10 07:02:00,70.0,69.0,-100.00,SSE,156,0.0,2.0,97,0.00,,,0.00,0.000000,,2013-08-10 11:02:00,
2013-08-10 09:43:00,76.0,75.0,-100.00,SW,225,3.0,5.0,96,-99.99,,,0.00,116.000000,,2013-08-10 13:43:00,
2013-08-10 09:52:00,76.0,75.0,-100.00,SW,225,3.0,5.0,96,-99.99,,,0.00,116.000000,,2013-08-10 13:52:00,
2013-08-10 10:02:00,76.0,75.0,-100.00,SW,225,3.0,5.0,96,-99.99,,,0.00,116.000000,,2013-08-10 14:02:00,
2013-08-10 10:33:00,81.0,75.0,-100.00,SSW,198,3.0,6.0,82,0.00,,,0.00,285.000000,,2013-08-10 14:33:00,
2013-08-10 10:43:00,81.0,75.0,-100.00,SSW,198,3.0,6.0,82,0.00,,,0.00,285.000000,,2013-08-10 14:43:00,
2013-08-10 10:53:00,81.0,75.0,-100.00,SSW,198,3.0,6.0,82,0.00,,,0.00,285.000000,,2013-08-10 14:53:00,
2013-08-10 11:02:00,81.0,75.0,-100.00,SSW,198,3.0,6.0,82,0.00,,,0.00,285.000000,,2013-08-10 15:02:00,
2013-08-10 11:34:00,84.0,75.0,-100.00,SW,221,6.0,10.0,75,0.00,,,-99.99,487.000000,,2013-08-10 15:34:00,
2013-08-10 11:43:00,84.0,75.0,-100.00,SW,221,6.0,10.0,75,0.00,,,-99.99,487.000000,,2013-08-10 15:43:00,
2013-08-10 11:52:00,84.0,75.0,-100.00,SW,221,6.0,10.0,75,0.00,,,-99.99,487.000000,,2013-08-10 15:52:00,
2013-08-10 12:01:00,84.0,75.0,-100.00,SW,221,6.0,10.0,75,0.00,,,-99.99,487.000000,,2013-08-10 16:01:00,
2013-08-10 12:32:00,86.0,74.0,-100.00,WNW,297,2.0,11.0,67,0.00,,,0.00,556.000000,,2013-08-10 16:32:00,
2013-08-10 12:43:00,86.0,74.0,-100.00,WNW,297,2.0,11.0,67,0.00,,,0.00,556.000000,,2013-08-10 16:43:00,
2013-08-10 12:53:00,86.0,74.0,-100.00,WNW,297,2.0,11.0,67,0.00,,,0.00,556.000000,,2013-08-10 16:53:00,
2013-08-10 13:02:00,86.0,74.0,-100.00,WNW,297,2.0,11.0,67,0.00,,,0.00,556.000000,,2013-08-10 17:02:00,
2013-08-10 13:33:00,87.0,73.0,-100.00,NNW,337,3.0,7.0,64,0.00,,,0.00,561.000000,,2013-08-10 17:33:00,
2013-08-10 13:43:00,87.0,73.0,-100.00,NNW,337,3.0,7.0,64,0.00,,,0.00,561.000000,,2013-08-10 17:43:00,
2013-08-10 13:52:00,87.0,73.0,-100.00,NNW,337,3.0,7.0,64,0.00,,,0.00,561.000000,,2013-08-10 17:52:00,
2013-08-10 14:01:00,87.0,73.0,-100.00,NNW,337,3.0,7.0,64,0.00,,,0.00,561.000000,,2013-08-10 18:01:00,
2013-08-10 14:32:00,84.0,74.0,-100.00,WSW,238,4.0,9.0,72,0.00,,,0.00,365.000000,,2013-08-10 18:32:00,
2013-08-10 14:44:00,84.0,74.0,-100.00,WSW,238,4.0,9.0,72,0.00,,,0.00,365.000000,,2013-08-10 18:44:00,
2013-08-10 14:52:00,84.0,74.0,-100.00,WSW,238,4.0,9.0,72,0.00,,,0.00,365.000000,,2013-08-10 18:52:00,
2013-08-10 15:02:00,84.0,74.0,-100.00,WSW,238,4.0,9.0,72,0.00,,,0.00,365.000000,,2013-08-10 19:02:00,
2013-08-10 15:44:00,76.0,74.0,-100.00,SE,143,3.0,11.0,93,0.02,,,0.02,27.000000,,2013-08-10 19:44:00,
2013-08-10 15:53:00,76.0,74.0,-100.00,SE,143,3.0,11.0,93,0.02,,,0.02,27.000000,,2013-08-10 19:53:00,
2013-08-10 16:02:00,76.0,74.0,-100.00,SE,143,3.0,11.0,93,0.02,,,0.02,27.000000,,2013-08-10 20:02:00,
2013-08-10 16:33:00,75.0,73.0,-100.00,SSW,212,4.0,7.0,92,0.00,,,-99.99,52.000000,,2013-08-10 20:33:00,
2013-08-10 16:43:00,75.0,73.0,-100.00,SSW,212,4.0,7.0,92,0.00,,,-99.99,52.000000,,2013-08-10 20:43:00,
2013-08-10 16:53:00,75.0,73.0,-100.00,SSW,212,4.0,7.0,92,0.00,,,-99.99,52.000000,,2013-08-10 20:53:00,
2013-08-10 17:02:00,75.0,73.0,-100.00,SSW,212,4.0,7.0,92,0.00,,,-99.99,52.000000,,2013-08-10 21:02:00,
2013-08-10 17:32:00,82.0,74.0,-100.00,SSE,162,3.0,7.0,78,0.00,,,0.02,367.000000,,2013-08-10 21:32:00,
2013-08-10 17:42:00,82.0,74.0,-100.00,SSE,162,3.0,7.0,78,0.00,,,0.02,367.000000,,2013-08-10 21:42:00,
2013-08-10 17:52:00,82.0,74.0,-100.00,SSE,162,3.0,7.0,78,0.00,,,0.02,367.000000,,2013-08-10 21:52:00,
2013-08-10 18:01:00,82.0,74.0,-100.00,SSE,162,3.0,7.0,78,0.00,,,0.02,367.000000,,2013-08-10 22:01:00,
2013-08-10 18:32:00,81.0,74.0,-100.00,SE,138,2.0,7.0,79,0.00,,,0.02,262.000000,,2013-08-10 22:32:00,
2013-08-10 18:43:00,81.0,74.0,-100.00,SE,138,2.0,7.0,79,0.00,,,0.02,262.000000,,2013-08-10 22:43:00,
2013-08-10 18:52:00,81.0,74.0,-100.00,SE,138,2.0,7.0,79,0.00,,,0.02,262.000000,,2013-08-10 22:52:00,
2013-08-10 19:02:00,81.0,74.0,-100.00,SE,138,2.0,7.0,79,0.00,,,0.02,262.000000,,2013-08-10 23:02:00,
2013-08-10 19:33:00,80.0,74.0,-100.00,NE,41,5.0,8.0,82,0.00,,,0.02,88.000000,,2013-08-10 23:33:00,
2013-08-10 19:43:00,80.0,74.0,-100.00,NE,41,5.0,8.0,82,0.00,,,0.02,88.000000,,2013-08-10 23:43:00,
2013-08-10 19:53:00,80.0,74.0,-100.00,NE,41,5.0,8.0,82,0.00,,,0.02,88.000000,,2013-08-10 23:53:00,
2013-08-10 20:02:00,80.0,74.0,-100.00,NE,41,5.0,8.0,82,0.00,,,0.02,88.000000,,2013-08-11 00:02:00,
2013-08-10 20:32:00,78.0,73.0,-100.00,ENE,73,3.0,7.0,85,0.00,,,0.02,44.000000,,2013-08-11 00:32:00,
2013-08-10 20:42:00,78.0,73.0,-100.00,ENE,73,3.0,7.0,85,0.00,,,0.02,44.000000,,2013-08-11 00:42:00,
2013-08-10 20:52:00,78.0,73.0,-100.00,ENE,73,3.0,7.0,85,0.00,,,0.02,44.000000,,2013-08-11 00:52:00,
2013-08-10 21:02:00,78.0,73.0,-100.00,ENE,73,3.0,7.0,85,0.00,,,0.02,44.000000,,2013-08-11 01:02:00,
2013-08-10 21:32:00,75.0,73.0,-100.00,South,171,1.0,4.0,95,0.00,,,0.02,6.000000,,2013-08-11 01:32:00,
2013-08-10 21:43:00,75.0,73.0,-100.00,South,171,1.0,4.0,95,0.00,,,0.02,6.000000,,2013-08-11 01:43:00,
2013-08-10 21:54:00,75.0,73.0,-100.00,South,171,1.0,4.0,95,0.00,,,0.02,6.000000,,2013-08-11 01:54:00,
2013-08-10 22:02:00,75.0,73.0,-100.00,South,171,1.0,4.0,95,0.00,,,0.02,6.000000,,2013-08-11 02:02:00,
2013-08-10 22:06:00,74.0,73.0,-100.00,SE,138,1.0,3.0,96,0.00,,,0.02,0.000000,,2013-08-11 02:06:00,
2013-08-10 22:32:00,74.0,73.0,-100.00,SE,138,1.0,3.0,96,0.00,,,0.02,0.000000,,2013-08-11 02:32:00,
2013-08-10 22:43:00,74.0,73.0,-100.00,SE,138,1.0,3.0,96,0.00,,,0.02,0.000000,,2013-08-11 02:43:00,
2013-08-10 22:57:00,74.0,73.0,-100.00,SE,138,1.0,3.0,96,0.00,,,0.02,0.000000,,2013-08-11 02:57:00,
2013-08-10 23:36:00,74.0,73.0,-100.00,NW,304,2.0,3.0,96,0.00,,,0.02,0.000000,,2013-08-11 03:36:00,
2013-08-10 23:57:00,74.0,73.0,-100.00,NW,304,2.0,3.0,96,0.00,,,0.02,0.000000,,2013-08-11 03:57:00,